sensor_id;sensor_type;location;lat;lon;timestamp;P1;durP1;ratioP1;P2;durP2;ratioP2
57778;SDS011;43608;49.486;9.640;2023-02-13T00:00:27;15.75;;;10.13;;
57778;SDS011;43608;49.486;9.640;2023-02-13T00:00:57;14.55;;;9.93;;
57778;SDS011;43608;49.486;9.640;2023-02-13T00:01:28;16.38;;;10.15;;
57778;SDS011;43608;49.486;9.640;2023-02-13T00:01:59;16.25;;;10.50;;
57778;SDS011;43608;49.486;9.640;2023-02-13T00:02:29;15.68;;;10.32;;
57778;SDS011;43608;49.486;9.640;2023-02-13T00:02:59;14.95;;;9.40;;
57778;SDS011;43608;49.486;9.640;2023-02-13T00:03:30;16.42;;;10.70;;
57778;SDS011;43608;49.486;9.640;2023-02-13T00:04:00;15.75;;;9.85;;
57778;SDS011;43608;49.486;9.640;2023-02-13T00:04:30;16.02;;;10.63;;
57778;SDS011;43608;49.486;9.640;2023-02-13T00:05:01;15.10;;;9.57;;
57778;SDS011;43608;49.486;9.640;2023-02-13T00:05:31;16.85;;;10.32;;
57778;SDS011;43608;49.486;9.640;2023-02-13T00:06:02;15.43;;;10.23;;
57778;SDS011;43608;49.486;9.640;2023-02-13T00:06:32;16.83;;;10.52;;
57778;SDS011;43608;49.486;9.640;2023-02-13T00:07:02;15.73;;;10.40;;
57778;SDS011;43608;49.486;9.640;2023-02-13T00:07:33;15.57;;;10.15;;
57778;SDS011;43608;49.486;9.640;2023-02-13T00:08:03;15.38;;;9.75;;
57778;SDS011;43608;49.486;9.640;2023-02-13T00:08:34;13.70;;;9.15;;
57778;SDS011;43608;49.486;9.640;2023-02-13T00:09:05;15.18;;;9.60;;
57778;SDS011;43608;49.486;9.640;2023-02-13T00:09:35;17.17;;;10.75;;
57778;SDS011;43608;49.486;9.640;2023-02-13T00:10:05;15.38;;;10.20;;
57778;SDS011;43608;49.486;9.640;2023-02-13T00:10:36;14.18;;;9.38;;
57778;SDS011;43608;49.486;9.640;2023-02-13T00:11:07;13.90;;;9.50;;
57778;SDS011;43608;49.486;9.640;2023-02-13T00:11:37;15.43;;;9.75;;
57778;SDS011;43608;49.486;9.640;2023-02-13T00:12:08;13.65;;;9.48;;
57778;SDS011;43608;49.486;9.640;2023-02-13T00:12:39;13.30;;;9.05;;
57778;SDS011;43608;49.486;9.640;2023-02-13T00:13:09;13.77;;;9.18;;
57778;SDS011;43608;49.486;9.640;2023-02-13T00:13:40;13.35;;;9.30;;
57778;SDS011;43608;49.486;9.640;2023-02-13T00:14:10;13.95;;;9.38;;
57778;SDS011;43608;49.486;9.640;2023-02-13T00:14:40;14.00;;;9.60;;
57778;SDS011;43608;49.486;9.640;2023-02-13T00:15:11;12.90;;;9.10;;
57778;SDS011;43608;49.486;9.640;2023-02-13T00:15:41;13.40;;;9.23;;
57778;SDS011;43608;49.486;9.640;2023-02-13T00:16:11;14.38;;;9.52;;
57778;SDS011;43608;49.486;9.640;2023-02-13T00:16:42;14.25;;;9.52;;
57778;SDS011;43608;49.486;9.640;2023-02-13T00:17:12;12.88;;;8.88;;
57778;SDS011;43608;49.486;9.640;2023-02-13T00:17:43;15.73;;;10.23;;
57778;SDS011;43608;49.486;9.640;2023-02-13T00:18:13;17.00;;;10.57;;
57778;SDS011;43608;49.486;9.640;2023-02-13T00:18:43;16.35;;;10.23;;
57778;SDS011;43608;49.486;9.640;2023-02-13T00:19:14;17.92;;;11.13;;
57778;SDS011;43608;49.486;9.640;2023-02-13T00:19:44;16.13;;;10.52;;
57778;SDS011;43608;49.486;9.640;2023-02-13T00:20:14;15.75;;;10.25;;
57778;SDS011;43608;49.486;9.640;2023-02-13T00:20:45;16.95;;;11.05;;
57778;SDS011;43608;49.486;9.640;2023-02-13T00:21:26;18.50;;;11.10;;
57778;SDS011;43608;49.486;9.640;2023-02-13T00:21:57;18.38;;;11.90;;
57778;SDS011;43608;49.486;9.640;2023-02-13T00:22:27;17.45;;;11.00;;
57778;SDS011;43608;49.486;9.640;2023-02-13T00:24:57;16.48;;;9.98;;
57778;SDS011;43608;49.486;9.640;2023-02-13T00:25:28;17.17;;;10.30;;
57778;SDS011;43608;49.486;9.640;2023-02-13T00:25:59;15.75;;;10.18;;
57778;SDS011;43608;49.486;9.640;2023-02-13T00:26:30;16.55;;;10.40;;
57778;SDS011;43608;49.486;9.640;2023-02-13T00:27:01;15.30;;;9.80;;
57778;SDS011;43608;49.486;9.640;2023-02-13T00:27:31;15.65;;;9.65;;
57778;SDS011;43608;49.486;9.640;2023-02-13T00:28:02;16.00;;;10.43;;
57778;SDS011;43608;49.486;9.640;2023-02-13T00:28:32;15.73;;;10.63;;
57778;SDS011;43608;49.486;9.640;2023-02-13T00:29:03;15.70;;;10.13;;
57778;SDS011;43608;49.486;9.640;2023-02-13T00:29:33;18.35;;;11.50;;
57778;SDS011;43608;49.486;9.640;2023-02-13T00:30:04;16.35;;;10.55;;
57778;SDS011;43608;49.486;9.640;2023-02-13T00:30:35;16.55;;;10.75;;
57778;SDS011;43608;49.486;9.640;2023-02-13T00:31:06;17.92;;;11.57;;
57778;SDS011;43608;49.486;9.640;2023-02-13T00:31:38;17.45;;;11.23;;
57778;SDS011;43608;49.486;9.640;2023-02-13T00:32:08;17.88;;;11.43;;
57778;SDS011;43608;49.486;9.640;2023-02-13T00:32:39;18.85;;;11.82;;
57778;SDS011;43608;49.486;9.640;2023-02-13T00:33:09;17.98;;;11.10;;
57778;SDS011;43608;49.486;9.640;2023-02-13T00:33:39;15.32;;;10.52;;
57778;SDS011;43608;49.486;9.640;2023-02-13T00:34:10;19.10;;;11.43;;
57778;SDS011;43608;49.486;9.640;2023-02-13T00:34:41;15.80;;;10.25;;
57778;SDS011;43608;49.486;9.640;2023-02-13T00:35:12;16.08;;;10.88;;
57778;SDS011;43608;49.486;9.640;2023-02-13T00:35:43;17.60;;;11.50;;
57778;SDS011;43608;49.486;9.640;2023-02-13T00:36:15;18.33;;;11.40;;
57778;SDS011;43608;49.486;9.640;2023-02-13T00:36:49;17.02;;;10.73;;
57778;SDS011;43608;49.486;9.640;2023-02-13T00:37:19;14.82;;;10.35;;
57778;SDS011;43608;49.486;9.640;2023-02-13T00:37:50;16.42;;;10.63;;
57778;SDS011;43608;49.486;9.640;2023-02-13T00:38:20;13.90;;;10.02;;
57778;SDS011;43608;49.486;9.640;2023-02-13T00:38:52;18.48;;;10.77;;
57778;SDS011;43608;49.486;9.640;2023-02-13T00:39:23;16.30;;;10.43;;
57778;SDS011;43608;49.486;9.640;2023-02-13T00:39:53;16.38;;;10.55;;
57778;SDS011;43608;49.486;9.640;2023-02-13T00:40:23;16.70;;;10.05;;
57778;SDS011;43608;49.486;9.640;2023-02-13T00:40:54;14.70;;;9.63;;
57778;SDS011;43608;49.486;9.640;2023-02-13T00:41:24;16.67;;;10.05;;
57778;SDS011;43608;49.486;9.640;2023-02-13T00:41:55;14.57;;;9.68;;
57778;SDS011;43608;49.486;9.640;2023-02-13T00:42:25;14.55;;;9.65;;
57778;SDS011;43608;49.486;9.640;2023-02-13T00:42:55;15.02;;;10.02;;
57778;SDS011;43608;49.486;9.640;2023-02-13T00:43:26;17.02;;;10.40;;
57778;SDS011;43608;49.486;9.640;2023-02-13T00:43:56;15.10;;;9.55;;
57778;SDS011;43608;49.486;9.640;2023-02-13T00:44:26;15.55;;;10.15;;
57778;SDS011;43608;49.486;9.640;2023-02-13T00:44:57;13.77;;;9.35;;
57778;SDS011;43608;49.486;9.640;2023-02-13T00:45:27;14.75;;;9.25;;
57778;SDS011;43608;49.486;9.640;2023-02-13T00:45:58;15.68;;;9.82;;
57778;SDS011;43608;49.486;9.640;2023-02-13T00:46:28;15.52;;;9.95;;
57778;SDS011;43608;49.486;9.640;2023-02-13T00:46:59;16.27;;;9.95;;
57778;SDS011;43608;49.486;9.640;2023-02-13T00:47:29;16.50;;;10.57;;
57778;SDS011;43608;49.486;9.640;2023-02-13T00:47:59;15.80;;;10.00;;
57778;SDS011;43608;49.486;9.640;2023-02-13T00:48:30;15.52;;;10.32;;
57778;SDS011;43608;49.486;9.640;2023-02-13T00:49:02;14.15;;;9.68;;
57778;SDS011;43608;49.486;9.640;2023-02-13T00:49:32;15.07;;;10.00;;
57778;SDS011;43608;49.486;9.640;2023-02-13T00:50:03;17.27;;;10.90;;
57778;SDS011;43608;49.486;9.640;2023-02-13T00:50:33;14.82;;;10.02;;
57778;SDS011;43608;49.486;9.640;2023-02-13T00:51:04;15.30;;;10.45;;
57778;SDS011;43608;49.486;9.640;2023-02-13T00:51:36;17.55;;;10.88;;
57778;SDS011;43608;49.486;9.640;2023-02-13T00:52:06;17.67;;;11.48;;
57778;SDS011;43608;49.486;9.640;2023-02-13T00:52:36;18.50;;;11.25;;
57778;SDS011;43608;49.486;9.640;2023-02-13T00:53:07;15.88;;;10.48;;
57778;SDS011;43608;49.486;9.640;2023-02-13T00:53:37;16.02;;;10.57;;
57778;SDS011;43608;49.486;9.640;2023-02-13T00:54:08;16.40;;;10.95;;
57778;SDS011;43608;49.486;9.640;2023-02-13T00:54:38;16.08;;;10.55;;
57778;SDS011;43608;49.486;9.640;2023-02-13T00:55:09;14.98;;;10.10;;
57778;SDS011;43608;49.486;9.640;2023-02-13T00:55:39;15.77;;;10.38;;
57778;SDS011;43608;49.486;9.640;2023-02-13T00:56:10;16.92;;;10.80;;
57778;SDS011;43608;49.486;9.640;2023-02-13T00:56:40;14.85;;;9.85;;
57778;SDS011;43608;49.486;9.640;2023-02-13T00:57:10;13.48;;;9.60;;
57778;SDS011;43608;49.486;9.640;2023-02-13T00:57:41;14.65;;;9.63;;
57778;SDS011;43608;49.486;9.640;2023-02-13T00:58:11;14.15;;;9.50;;
57778;SDS011;43608;49.486;9.640;2023-02-13T00:58:41;14.55;;;9.60;;
57778;SDS011;43608;49.486;9.640;2023-02-13T00:59:12;14.13;;;9.93;;
57778;SDS011;43608;49.486;9.640;2023-02-13T00:59:42;14.80;;;9.70;;
57778;SDS011;43608;49.486;9.640;2023-02-13T01:00:13;13.43;;;9.23;;
57778;SDS011;43608;49.486;9.640;2023-02-13T01:00:43;13.55;;;9.20;;
57778;SDS011;43608;49.486;9.640;2023-02-13T01:01:16;14.20;;;9.27;;
57778;SDS011;43608;49.486;9.640;2023-02-13T01:01:46;14.98;;;10.30;;
57778;SDS011;43608;49.486;9.640;2023-02-13T01:02:16;15.65;;;10.20;;
57778;SDS011;43608;49.486;9.640;2023-02-13T01:02:47;15.25;;;10.73;;
57778;SDS011;43608;49.486;9.640;2023-02-13T01:03:18;15.05;;;10.05;;
57778;SDS011;43608;49.486;9.640;2023-02-13T01:03:49;15.27;;;10.20;;
57778;SDS011;43608;49.486;9.640;2023-02-13T01:04:19;15.93;;;9.93;;
57778;SDS011;43608;49.486;9.640;2023-02-13T01:04:49;15.45;;;10.07;;
57778;SDS011;43608;49.486;9.640;2023-02-13T01:05:20;15.18;;;9.98;;
57778;SDS011;43608;49.486;9.640;2023-02-13T01:05:50;16.85;;;11.00;;
57778;SDS011;43608;49.486;9.640;2023-02-13T01:06:21;16.00;;;10.70;;
57778;SDS011;43608;49.486;9.640;2023-02-13T01:06:51;14.90;;;9.52;;
57778;SDS011;43608;49.486;9.640;2023-02-13T01:07:21;16.10;;;10.60;;
57778;SDS011;43608;49.486;9.640;2023-02-13T01:07:52;17.42;;;11.13;;
57778;SDS011;43608;49.486;9.640;2023-02-13T01:08:23;17.80;;;11.73;;
57778;SDS011;43608;49.486;9.640;2023-02-13T01:08:53;16.27;;;10.90;;
57778;SDS011;43608;49.486;9.640;2023-02-13T01:09:24;15.85;;;10.57;;
57778;SDS011;43608;49.486;9.640;2023-02-13T01:09:54;16.10;;;10.57;;
57778;SDS011;43608;49.486;9.640;2023-02-13T01:10:25;16.13;;;10.52;;
57778;SDS011;43608;49.486;9.640;2023-02-13T01:10:55;15.52;;;10.30;;
57778;SDS011;43608;49.486;9.640;2023-02-13T01:11:26;17.25;;;10.65;;
57778;SDS011;43608;49.486;9.640;2023-02-13T01:11:56;15.65;;;10.43;;
57778;SDS011;43608;49.486;9.640;2023-02-13T01:12:26;16.40;;;10.75;;
57778;SDS011;43608;49.486;9.640;2023-02-13T01:12:57;17.15;;;11.10;;
57778;SDS011;43608;49.486;9.640;2023-02-13T01:13:27;17.35;;;10.85;;
57778;SDS011;43608;49.486;9.640;2023-02-13T01:13:58;16.55;;;10.45;;
57778;SDS011;43608;49.486;9.640;2023-02-13T01:14:28;15.27;;;10.25;;
57778;SDS011;43608;49.486;9.640;2023-02-13T01:14:58;16.92;;;11.02;;
57778;SDS011;43608;49.486;9.640;2023-02-13T01:15:29;16.98;;;11.25;;
57778;SDS011;43608;49.486;9.640;2023-02-13T01:16:01;14.77;;;9.98;;
57778;SDS011;43608;49.486;9.640;2023-02-13T01:16:32;16.63;;;11.23;;
57778;SDS011;43608;49.486;9.640;2023-02-13T01:17:02;15.95;;;10.80;;
57778;SDS011;43608;49.486;9.640;2023-02-13T01:17:32;15.18;;;10.40;;
57778;SDS011;43608;49.486;9.640;2023-02-13T01:18:03;16.30;;;10.50;;
57778;SDS011;43608;49.486;9.640;2023-02-13T01:18:33;16.98;;;10.30;;
57778;SDS011;43608;49.486;9.640;2023-02-13T01:19:04;15.57;;;9.98;;
57778;SDS011;43608;49.486;9.640;2023-02-13T01:19:34;14.75;;;9.60;;
57778;SDS011;43608;49.486;9.640;2023-02-13T01:20:05;14.13;;;9.23;;
57778;SDS011;43608;49.486;9.640;2023-02-13T01:20:37;14.05;;;9.25;;
57778;SDS011;43608;49.486;9.640;2023-02-13T01:21:07;14.48;;;9.30;;
57778;SDS011;43608;49.486;9.640;2023-02-13T01:21:44;13.35;;;8.82;;
57778;SDS011;43608;49.486;9.640;2023-02-13T01:22:14;13.35;;;8.88;;
57778;SDS011;43608;49.486;9.640;2023-02-13T01:22:45;13.80;;;8.88;;
57778;SDS011;43608;49.486;9.640;2023-02-13T01:23:15;13.57;;;9.15;;
57778;SDS011;43608;49.486;9.640;2023-02-13T01:23:45;13.23;;;8.43;;
57778;SDS011;43608;49.486;9.640;2023-02-13T01:24:16;12.63;;;8.63;;
57778;SDS011;43608;49.486;9.640;2023-02-13T01:24:46;13.07;;;8.52;;
57778;SDS011;43608;49.486;9.640;2023-02-13T01:25:17;12.32;;;8.35;;
57778;SDS011;43608;49.486;9.640;2023-02-13T01:25:47;12.50;;;8.32;;
57778;SDS011;43608;49.486;9.640;2023-02-13T01:26:21;11.65;;;7.50;;
57778;SDS011;43608;49.486;9.640;2023-02-13T01:26:53;11.70;;;8.02;;
57778;SDS011;43608;49.486;9.640;2023-02-13T01:27:23;12.52;;;8.13;;
57778;SDS011;43608;49.486;9.640;2023-02-13T01:27:54;12.45;;;8.02;;
57778;SDS011;43608;49.486;9.640;2023-02-13T01:28:25;12.65;;;8.23;;
57778;SDS011;43608;49.486;9.640;2023-02-13T01:28:55;12.10;;;8.07;;
57778;SDS011;43608;49.486;9.640;2023-02-13T01:29:27;12.20;;;8.35;;
57778;SDS011;43608;49.486;9.640;2023-02-13T01:29:58;11.70;;;7.80;;
57778;SDS011;43608;49.486;9.640;2023-02-13T01:30:29;12.15;;;8.50;;
57778;SDS011;43608;49.486;9.640;2023-02-13T01:30:59;12.80;;;8.50;;
57778;SDS011;43608;49.486;9.640;2023-02-13T01:31:29;12.60;;;8.48;;
57778;SDS011;43608;49.486;9.640;2023-02-13T01:32:00;12.95;;;8.68;;
57778;SDS011;43608;49.486;9.640;2023-02-13T01:32:32;12.98;;;8.55;;
57778;SDS011;43608;49.486;9.640;2023-02-13T01:33:03;12.60;;;8.70;;
57778;SDS011;43608;49.486;9.640;2023-02-13T01:33:33;14.15;;;8.55;;
57778;SDS011;43608;49.486;9.640;2023-02-13T01:34:05;12.60;;;8.48;;
57778;SDS011;43608;49.486;9.640;2023-02-13T01:34:35;13.27;;;8.50;;
57778;SDS011;43608;49.486;9.640;2023-02-13T01:35:06;13.15;;;8.52;;
57778;SDS011;43608;49.486;9.640;2023-02-13T01:35:40;12.70;;;8.65;;
57778;SDS011;43608;49.486;9.640;2023-02-13T01:36:10;12.65;;;8.60;;
57778;SDS011;43608;49.486;9.640;2023-02-13T01:36:43;13.88;;;8.73;;
57778;SDS011;43608;49.486;9.640;2023-02-13T01:37:13;12.70;;;8.65;;
57778;SDS011;43608;49.486;9.640;2023-02-13T01:37:44;15.88;;;10.00;;
57778;SDS011;43608;49.486;9.640;2023-02-13T01:38:14;13.77;;;8.85;;
57778;SDS011;43608;49.486;9.640;2023-02-13T01:38:45;14.32;;;8.77;;
57778;SDS011;43608;49.486;9.640;2023-02-13T01:39:16;14.95;;;9.32;;
57778;SDS011;43608;49.486;9.640;2023-02-13T01:39:46;13.82;;;8.73;;
57778;SDS011;43608;49.486;9.640;2023-02-13T01:40:16;13.98;;;8.85;;
57778;SDS011;43608;49.486;9.640;2023-02-13T01:40:48;13.05;;;8.68;;
57778;SDS011;43608;49.486;9.640;2023-02-13T01:41:20;14.38;;;9.23;;
57778;SDS011;43608;49.486;9.640;2023-02-13T01:41:51;14.18;;;9.43;;
57778;SDS011;43608;49.486;9.640;2023-02-13T01:42:24;15.15;;;9.95;;
57778;SDS011;43608;49.486;9.640;2023-02-13T01:42:56;15.55;;;9.38;;
57778;SDS011;43608;49.486;9.640;2023-02-13T01:45:29;14.32;;;8.95;;
57778;SDS011;43608;49.486;9.640;2023-02-13T01:46:00;15.57;;;9.30;;
57778;SDS011;43608;49.486;9.640;2023-02-13T01:46:35;14.32;;;9.32;;
57778;SDS011;43608;49.486;9.640;2023-02-13T01:47:09;14.52;;;8.88;;
57778;SDS011;43608;49.486;9.640;2023-02-13T01:48:17;12.50;;;8.27;;
57778;SDS011;43608;49.486;9.640;2023-02-13T01:48:45;14.00;;;8.48;;
57778;SDS011;43608;49.486;9.640;2023-02-13T01:49:21;14.93;;;9.48;;
57778;SDS011;43608;49.486;9.640;2023-02-13T01:49:59;16.65;;;9.18;;
57778;SDS011;43608;49.486;9.640;2023-02-13T01:50:39;14.15;;;8.77;;
57778;SDS011;43608;49.486;9.640;2023-02-13T01:51:17;14.10;;;8.80;;
57778;SDS011;43608;49.486;9.640;2023-02-13T01:51:55;15.02;;;8.90;;
57778;SDS011;43608;49.486;9.640;2023-02-13T01:52:26;12.70;;;8.25;;
57778;SDS011;43608;49.486;9.640;2023-02-13T01:52:59;15.15;;;9.30;;
57778;SDS011;43608;49.486;9.640;2023-02-13T01:53:58;14.98;;;8.32;;
57778;SDS011;43608;49.486;9.640;2023-02-13T01:54:39;12.13;;;7.90;;
57778;SDS011;43608;49.486;9.640;2023-02-13T01:55:10;14.25;;;9.15;;
57778;SDS011;43608;49.486;9.640;2023-02-13T01:55:51;12.95;;;8.35;;
57778;SDS011;43608;49.486;9.640;2023-02-13T01:56:28;12.27;;;8.05;;
57778;SDS011;43608;49.486;9.640;2023-02-13T01:57:18;12.65;;;8.07;;
57778;SDS011;43608;49.486;9.640;2023-02-13T01:58:02;12.20;;;8.00;;
57778;SDS011;43608;49.486;9.640;2023-02-13T01:58:37;11.55;;;7.60;;
57778;SDS011;43608;49.486;9.640;2023-02-13T01:59:12;10.35;;;7.30;;
57778;SDS011;43608;49.486;9.640;2023-02-13T01:59:54;11.77;;;7.82;;
57778;SDS011;43608;49.486;9.640;2023-02-13T02:00:28;14.82;;;9.07;;
57778;SDS011;43608;49.486;9.640;2023-02-13T02:01:00;13.40;;;8.35;;
57778;SDS011;43608;49.486;9.640;2023-02-13T02:01:32;13.80;;;8.55;;
57778;SDS011;43608;49.486;9.640;2023-02-13T02:02:02;12.98;;;8.80;;
57778;SDS011;43608;49.486;9.640;2023-02-13T02:02:33;13.18;;;8.50;;
57778;SDS011;43608;49.486;9.640;2023-02-13T02:03:12;12.10;;;8.05;;
57778;SDS011;43608;49.486;9.640;2023-02-13T02:03:55;12.32;;;7.97;;
57778;SDS011;43608;49.486;9.640;2023-02-13T02:04:31;12.27;;;7.63;;
57778;SDS011;43608;49.486;9.640;2023-02-13T02:05:04;12.63;;;8.18;;
57778;SDS011;43608;49.486;9.640;2023-02-13T02:05:37;14.63;;;8.73;;
57778;SDS011;43608;49.486;9.640;2023-02-13T02:06:10;12.82;;;8.05;;
57778;SDS011;43608;49.486;9.640;2023-02-13T02:06:48;12.50;;;8.10;;
57778;SDS011;43608;49.486;9.640;2023-02-13T02:07:23;11.23;;;7.70;;
57778;SDS011;43608;49.486;9.640;2023-02-13T02:07:55;12.85;;;8.05;;
57778;SDS011;43608;49.486;9.640;2023-02-13T02:08:28;13.70;;;8.80;;
57778;SDS011;43608;49.486;9.640;2023-02-13T02:09:01;14.30;;;8.82;;
57778;SDS011;43608;49.486;9.640;2023-02-13T02:09:37;12.63;;;8.90;;
57778;SDS011;43608;49.486;9.640;2023-02-13T02:10:18;13.65;;;9.02;;
57778;SDS011;43608;49.486;9.640;2023-02-13T02:10:50;14.27;;;9.02;;
57778;SDS011;43608;49.486;9.640;2023-02-13T02:11:26;14.10;;;8.93;;
57778;SDS011;43608;49.486;9.640;2023-02-13T02:12:05;13.90;;;8.40;;
57778;SDS011;43608;49.486;9.640;2023-02-13T02:12:42;12.60;;;8.30;;
57778;SDS011;43608;49.486;9.640;2023-02-13T02:13:19;10.98;;;7.68;;
57778;SDS011;43608;49.486;9.640;2023-02-13T02:13:50;13.23;;;8.63;;
57778;SDS011;43608;49.486;9.640;2023-02-13T02:14:22;13.05;;;8.50;;
57778;SDS011;43608;49.486;9.640;2023-02-13T02:14:53;12.57;;;8.20;;
57778;SDS011;43608;49.486;9.640;2023-02-13T02:15:27;11.73;;;7.50;;
57778;SDS011;43608;49.486;9.640;2023-02-13T02:15:57;11.38;;;8.05;;
57778;SDS011;43608;49.486;9.640;2023-02-13T02:16:28;13.77;;;8.57;;
57778;SDS011;43608;49.486;9.640;2023-02-13T02:17:00;13.88;;;8.48;;
57778;SDS011;43608;49.486;9.640;2023-02-13T02:17:30;13.13;;;8.57;;
57778;SDS011;43608;49.486;9.640;2023-02-13T02:18:01;13.77;;;8.50;;
57778;SDS011;43608;49.486;9.640;2023-02-13T02:18:31;14.48;;;9.07;;
57778;SDS011;43608;49.486;9.640;2023-02-13T02:19:03;13.68;;;8.93;;
57778;SDS011;43608;49.486;9.640;2023-02-13T02:19:47;14.68;;;9.25;;
57778;SDS011;43608;49.486;9.640;2023-02-13T02:21:29;11.30;;;7.15;;
57778;SDS011;43608;49.486;9.640;2023-02-13T02:22:45;13.00;;;8.07;;
57778;SDS011;43608;49.486;9.640;2023-02-13T02:23:46;13.05;;;8.25;;
57778;SDS011;43608;49.486;9.640;2023-02-13T02:27:13;14.13;;;8.15;;
57778;SDS011;43608;49.486;9.640;2023-02-13T02:33:10;13.02;;;7.90;;
57778;SDS011;43608;49.486;9.640;2023-02-13T02:34:16;14.93;;;8.80;;
57778;SDS011;43608;49.486;9.640;2023-02-13T02:36:47;12.35;;;8.00;;
57778;SDS011;43608;49.486;9.640;2023-02-13T02:37:25;14.13;;;8.68;;
57778;SDS011;43608;49.486;9.640;2023-02-13T02:41:11;12.88;;;7.80;;
57778;SDS011;43608;49.486;9.640;2023-02-13T02:44:11;13.23;;;7.70;;
57778;SDS011;43608;49.486;9.640;2023-02-13T02:45:01;13.57;;;8.40;;
57778;SDS011;43608;49.486;9.640;2023-02-13T02:45:39;13.60;;;8.63;;
57778;SDS011;43608;49.486;9.640;2023-02-13T02:48:50;12.88;;;7.85;;
57778;SDS011;43608;49.486;9.640;2023-02-13T02:49:41;11.95;;;7.85;;
57778;SDS011;43608;49.486;9.640;2023-02-13T02:52:30;11.93;;;7.80;;
57778;SDS011;43608;49.486;9.640;2023-02-13T02:53:36;10.80;;;7.00;;
57778;SDS011;43608;49.486;9.640;2023-02-13T02:54:28;11.35;;;7.38;;
57778;SDS011;43608;49.486;9.640;2023-02-13T02:55:33;10.25;;;6.35;;
57778;SDS011;43608;49.486;9.640;2023-02-13T02:56:13;10.63;;;7.00;;
57778;SDS011;43608;49.486;9.640;2023-02-13T02:56:47;11.57;;;7.03;;
57778;SDS011;43608;49.486;9.640;2023-02-13T02:57:20;11.07;;;7.22;;
57778;SDS011;43608;49.486;9.640;2023-02-13T02:59:06;9.90;;;6.70;;
57778;SDS011;43608;49.486;9.640;2023-02-13T03:00:00;11.13;;;6.53;;
57778;SDS011;43608;49.486;9.640;2023-02-13T03:00:49;10.95;;;6.78;;
57778;SDS011;43608;49.486;9.640;2023-02-13T03:01:39;9.90;;;6.75;;
57778;SDS011;43608;49.486;9.640;2023-02-13T03:02:29;10.15;;;6.80;;
57778;SDS011;43608;49.486;9.640;2023-02-13T03:03:21;10.85;;;6.82;;
57778;SDS011;43608;49.486;9.640;2023-02-13T03:04:17;11.70;;;7.13;;
57778;SDS011;43608;49.486;9.640;2023-02-13T03:05:14;10.95;;;6.90;;
57778;SDS011;43608;49.486;9.640;2023-02-13T03:06:11;10.32;;;6.22;;
57778;SDS011;43608;49.486;9.640;2023-02-13T03:06:50;11.00;;;6.57;;
57778;SDS011;43608;49.486;9.640;2023-02-13T03:07:26;10.85;;;6.95;;
57778;SDS011;43608;49.486;9.640;2023-02-13T03:07:56;12.35;;;7.50;;
57778;SDS011;43608;49.486;9.640;2023-02-13T03:08:27;12.52;;;8.18;;
57778;SDS011;43608;49.486;9.640;2023-02-13T03:09:19;11.55;;;7.22;;
57778;SDS011;43608;49.486;9.640;2023-02-13T03:10:24;10.80;;;6.53;;
57778;SDS011;43608;49.486;9.640;2023-02-13T03:11:16;10.77;;;6.68;;
57778;SDS011;43608;49.486;9.640;2023-02-13T03:12:05;10.25;;;6.78;;
57778;SDS011;43608;49.486;9.640;2023-02-13T03:13:10;10.77;;;6.85;;
57778;SDS011;43608;49.486;9.640;2023-02-13T03:13:49;11.68;;;6.53;;
57778;SDS011;43608;49.486;9.640;2023-02-13T03:14:20;10.13;;;6.90;;
57778;SDS011;43608;49.486;9.640;2023-02-13T03:14:55;10.20;;;7.07;;
57778;SDS011;43608;49.486;9.640;2023-02-13T03:15:26;10.40;;;6.93;;
57778;SDS011;43608;49.486;9.640;2023-02-13T03:15:58;11.18;;;7.13;;
57778;SDS011;43608;49.486;9.640;2023-02-13T03:16:48;10.40;;;6.47;;
57778;SDS011;43608;49.486;9.640;2023-02-13T03:17:38;10.02;;;6.38;;
57778;SDS011;43608;49.486;9.640;2023-02-13T03:18:28;10.30;;;6.25;;
57778;SDS011;43608;49.486;9.640;2023-02-13T03:19:30;9.10;;;5.80;;
57778;SDS011;43608;49.486;9.640;2023-02-13T03:21:32;9.60;;;6.32;;
57778;SDS011;43608;49.486;9.640;2023-02-13T03:22:29;9.90;;;5.97;;
57778;SDS011;43608;49.486;9.640;2023-02-13T03:23:11;10.32;;;6.40;;
57778;SDS011;43608;49.486;9.640;2023-02-13T03:23:58;11.43;;;6.57;;
57778;SDS011;43608;49.486;9.640;2023-02-13T03:27:07;10.57;;;6.45;;
57778;SDS011;43608;49.486;9.640;2023-02-13T03:28:16;9.57;;;6.10;;
57778;SDS011;43608;49.486;9.640;2023-02-13T03:32:20;11.18;;;6.97;;
57778;SDS011;43608;49.486;9.640;2023-02-13T03:34:03;10.10;;;6.65;;
57778;SDS011;43608;49.486;9.640;2023-02-13T03:34:37;11.68;;;6.70;;
57778;SDS011;43608;49.486;9.640;2023-02-13T03:36:45;9.30;;;6.00;;
57778;SDS011;43608;49.486;9.640;2023-02-13T03:37:40;11.10;;;6.88;;
57778;SDS011;43608;49.486;9.640;2023-02-13T03:38:45;11.82;;;7.03;;
57778;SDS011;43608;49.486;9.640;2023-02-13T03:40:28;10.05;;;6.60;;
57778;SDS011;43608;49.486;9.640;2023-02-13T03:41:49;9.27;;;6.25;;
57778;SDS011;43608;49.486;9.640;2023-02-13T03:42:54;10.23;;;6.80;;
57778;SDS011;43608;49.486;9.640;2023-02-13T03:43:39;10.75;;;6.80;;
57778;SDS011;43608;49.486;9.640;2023-02-13T03:44:27;11.25;;;6.60;;
57778;SDS011;43608;49.486;9.640;2023-02-13T03:45:06;10.88;;;6.68;;
57778;SDS011;43608;49.486;9.640;2023-02-13T03:46:00;10.95;;;6.60;;
57778;SDS011;43608;49.486;9.640;2023-02-13T03:46:33;10.45;;;6.30;;
57778;SDS011;43608;49.486;9.640;2023-02-13T03:47:08;10.18;;;6.47;;
57778;SDS011;43608;49.486;9.640;2023-02-13T03:47:42;10.70;;;6.47;;
57778;SDS011;43608;49.486;9.640;2023-02-13T03:48:14;10.73;;;6.80;;
57778;SDS011;43608;49.486;9.640;2023-02-13T03:49:07;10.73;;;6.80;;
57778;SDS011;43608;49.486;9.640;2023-02-13T03:50:04;10.05;;;6.28;;
57778;SDS011;43608;49.486;9.640;2023-02-13T03:50:37;11.30;;;6.70;;
57778;SDS011;43608;49.486;9.640;2023-02-13T03:51:13;10.85;;;6.80;;
57778;SDS011;43608;49.486;9.640;2023-02-13T03:51:53;10.90;;;6.68;;
57778;SDS011;43608;49.486;9.640;2023-02-13T03:52:26;9.88;;;6.32;;
57778;SDS011;43608;49.486;9.640;2023-02-13T03:53:05;9.40;;;6.20;;
57778;SDS011;43608;49.486;9.640;2023-02-13T03:53:39;11.40;;;7.13;;
57778;SDS011;43608;49.486;9.640;2023-02-13T03:54:19;10.55;;;6.72;;
57778;SDS011;43608;49.486;9.640;2023-02-13T03:55:56;10.68;;;6.50;;
57778;SDS011;43608;49.486;9.640;2023-02-13T03:56:28;9.20;;;6.00;;
57778;SDS011;43608;49.486;9.640;2023-02-13T03:57:19;9.60;;;6.03;;
57778;SDS011;43608;49.486;9.640;2023-02-13T03:59:19;10.52;;;6.32;;
57778;SDS011;43608;49.486;9.640;2023-02-13T03:59:53;11.52;;;6.57;;
57778;SDS011;43608;49.486;9.640;2023-02-13T04:00:27;9.75;;;5.90;;
57778;SDS011;43608;49.486;9.640;2023-02-13T04:01:03;10.13;;;6.30;;
57778;SDS011;43608;49.486;9.640;2023-02-13T04:01:37;10.20;;;6.35;;
57778;SDS011;43608;49.486;9.640;2023-02-13T04:02:12;9.93;;;6.30;;
57778;SDS011;43608;49.486;9.640;2023-02-13T04:04:39;10.15;;;6.00;;
57778;SDS011;43608;49.486;9.640;2023-02-13T04:05:19;10.52;;;6.28;;
57778;SDS011;43608;49.486;9.640;2023-02-13T04:05:55;9.90;;;6.68;;
57778;SDS011;43608;49.486;9.640;2023-02-13T04:06:52;10.35;;;5.90;;
57778;SDS011;43608;49.486;9.640;2023-02-13T04:07:25;10.95;;;6.50;;
57778;SDS011;43608;49.486;9.640;2023-02-13T04:07:58;11.40;;;7.05;;
57778;SDS011;43608;49.486;9.640;2023-02-13T04:08:28;10.20;;;6.38;;
57778;SDS011;43608;49.486;9.640;2023-02-13T04:08:59;10.15;;;6.50;;
57778;SDS011;43608;49.486;9.640;2023-02-13T04:09:29;11.07;;;6.55;;
57778;SDS011;43608;49.486;9.640;2023-02-13T04:10:03;9.77;;;6.45;;
57778;SDS011;43608;49.486;9.640;2023-02-13T04:10:37;10.95;;;6.72;;